Time;durP1;ratioP1;P1;durP2;ratioP2;P2;SDS_P1;SDS_P2;PMS_P1;PMS_P2;Temp;Humidity;BMP_temperature;BMP_pressure;BME280_temperature;BME280_humidity;BME280_pressure;Samples;Min_cycle;Max_cycle;Signal;HPM_P1;HPM_P2
2022/05/25 00:00:44;;;;;;;;;15.40;14.20;;;;;20.92;59.00;98744.94;5089255;28;8853;-71
2022/05/25 00:03:14;;;;;;;;;15.00;15.00;;;;;20.86;58.81;98735.53;5105526;28;8830;-70
2022/05/25 00:05:44;;;;;;;;;16.00;14.80;;;;;20.86;59.25;98734.69;5096370;28;8859;-76
2022/05/25 00:08:13;;;;;;;;;17.80;17.40;;;;;20.88;58.99;98738.97;5086902;28;9708;-76
2022/05/25 00:10:42;;;;;;;;;16.80;16.80;;;;;20.87;59.04;98737.25;5087854;28;8860;-75
2022/05/25 00:13:11;;;;;;;;;18.60;17.40;;;;;20.85;59.09;98747.09;5088180;28;8871;-74
2022/05/25 00:15:39;;;;;;;;;17.80;17.80;;;;;20.77;59.25;98744.00;5088245;28;8840;-75
2022/05/25 00:18:08;;;;;;;;;14.60;14.60;;;;;20.72;59.60;98735.44;5086777;28;8855;-75
2022/05/25 00:20:37;;;;;;;;;17.00;17.00;;;;;20.74;59.52;98733.59;5088191;28;8840;-76
2022/05/25 00:23:07;;;;;;;;;16.00;16.00;;;;;20.64;59.89;98741.16;5102337;28;8867;-76
2022/05/25 00:25:39;;;;;;;;;18.40;18.00;;;;;20.62;59.73;98735.09;5107860;28;8829;-75
2022/05/25 00:28:11;;;;;;;;;17.00;17.00;;;;;20.59;59.98;98735.25;5072183;28;8857;-74
2022/05/25 00:30:41;;;;;;;;;16.00;16.00;;;;;20.54;59.89;98740.78;5108249;28;8857;-75
2022/05/25 00:33:10;;;;;;;;;17.00;15.40;;;;;20.53;60.03;98747.03;5056446;28;8861;-75
2022/05/25 00:35:40;;;;;;;;;19.60;18.00;;;;;20.57;60.08;98753.03;5095489;28;8855;-74
2022/05/25 00:38:10;;;;;;;;;15.60;15.60;;;;;20.61;59.88;98755.44;5096609;27;8853;-75
2022/05/25 00:40:42;;;;;;;;;17.00;17.00;;;;;20.54;60.20;98754.03;5075851;28;8853;-73
2022/05/25 00:43:12;;;;;;;;;16.40;16.40;;;;;20.59;60.00;98759.94;5129138;27;8890;-74
2022/05/25 00:45:45;;;;;;;;;16.40;16.40;;;;;20.49;59.87;98752.56;5112351;27;8876;-75
2022/05/25 00:48:21;;;;;;;;;18.40;17.00;;;;;20.54;60.25;98756.66;5129247;27;8923;-76
2022/05/25 00:53:39;;;;;;;;;16.20;15.40;;;;;20.52;60.11;98758.56;5129556;27;8853;-77
2022/05/25 00:56:11;;;;;;;;;17.40;17.20;;;;;20.45;60.26;98763.34;5127842;27;8845;-74
2022/05/25 00:58:43;;;;;;;;;17.20;16.20;;;;;20.48;60.22;98764.97;5095712;27;8942;-75
2022/05/25 01:01:12;;;;;;;;;16.80;16.40;;;;;20.49;60.20;98763.16;5129010;27;8845;-76
2022/05/25 01:03:41;;;;;;;;;15.00;14.40;;;;;20.50;60.31;98773.66;5128865;27;8881;-75
2022/05/25 01:06:22;;;;;;;;;15.00;14.75;;;;;20.55;59.89;98778.75;5129164;27;9650;-74
2022/05/25 01:09:03;;;;;;;;;16.60;16.00;;;;;20.47;60.11;98781.78;5128846;27;8841;-76
2022/05/25 01:11:44;;;;;;;;;15.80;15.80;;;;;20.48;60.21;98780.84;5127755;27;9042;-74
2022/05/25 01:14:27;;;;;;;;;17.80;17.80;;;;;20.55;59.85;98787.53;5121137;27;8841;-75
2022/05/25 01:17:04;;;;;;;;;12.80;12.20;;;;;20.55;59.92;98784.88;5094702;28;8952;-77
2022/05/25 01:19:56;;;;;;;;;2.40;1.00;;;;;20.52;60.09;98795.63;5089513;28;8855;-76
2022/05/25 01:22:45;;;;;;;;;14.00;14.00;;;;;20.59;59.67;98797.03;5089075;28;8887;-76
2022/05/25 01:25:37;;;;;;;;;11.80;11.60;;;;;20.69;59.40;98792.13;5072607;28;8840;-76
2022/05/25 01:28:11;;;;;;;;;14.00;14.00;;;;;20.76;59.21;98792.66;5089271;28;8962;-75
2022/05/25 01:30:47;;;;;;;;;12.20;12.20;;;;;20.74;59.22;98791.88;5105776;28;8829;-75
2022/05/25 01:33:20;;;;;;;;;15.20;15.20;;;;;20.81;59.00;98798.53;5109856;28;8849;-76
2022/05/25 01:35:56;;;;;;;;;20.40;18.20;;;;;20.82;58.94;98793.16;5110750;28;8818;-76
2022/05/25 01:38:31;;;;;;;;;15.60;15.60;;;;;20.84;58.85;98806.31;5113975;28;8932;-75
2022/05/25 01:41:07;;;;;;;;;13.60;13.60;;;;;20.84;58.73;98809.81;5106880;28;8847;-76
2022/05/25 01:43:40;;;;;;;;;18.40;16.80;;;;;20.80;59.17;98815.38;5104694;28;8862;-76
2022/05/25 01:46:14;;;;;;;;;17.80;16.00;;;;;20.94;58.49;98810.16;5121427;27;8844;-75
2022/05/25 01:48:45;;;;;;;;;14.80;14.80;;;;;20.95;58.45;98813.69;5120383;28;8837;-74
2022/05/25 01:51:19;;;;;;;;;17.00;17.00;;;;;21.01;58.26;98822.16;5113063;28;8876;-76
2022/05/25 01:54:05;;;;;;;;;19.00;16.80;;;;;21.00;58.21;98811.63;5111039;28;8829;-75
2022/05/25 01:56:38;;;;;;;;;16.00;16.00;;;;;21.02;58.09;98815.06;5055721;28;8883;-76
2022/05/25 01:59:10;;;;;;;;;17.20;16.40;;;;;20.99;58.34;98818.72;5069206;28;8867;-75
2022/05/25 02:01:50;;;;;;;;;17.40;16.00;;;;;21.08;57.95;98816.50;5047434;28;8949;-76
2022/05/25 02:04:20;;;;;;;;;17.00;16.20;;;;;21.07;57.90;98815.66;5049322;28;8864;-75
2022/05/25 02:07:10;;;;;;;;;15.40;15.40;;;;;21.10;57.86;98815.50;5049785;28;8856;-75
2022/05/25 02:10:04;;;;;;;;;15.80;15.80;;;;;21.13;57.71;98812.66;5049155;28;8895;-75
2022/05/25 02:12:45;;;;;;;;;15.80;15.40;;;;;21.14;57.72;98808.22;5049498;28;8856;-76
2022/05/25 02:15:24;;;;;;;;;16.00;16.00;;;;;21.15;57.65;98801.97;5049548;28;8867;-74
2022/05/25 02:18:04;;;;;;;;;18.40;17.00;;;;;21.10;57.86;98810.19;5065958;28;8834;-74
2022/05/25 02:20:40;;;;;;;;;16.40;16.40;;;;;21.15;57.49;98801.97;5063069;28;8971;-76
2022/05/25 02:23:18;;;;;;;;;16.60;16.20;;;;;21.08;57.80;98801.47;5049256;28;8895;-75
2022/05/25 02:25:51;;;;;;;;;15.00;14.40;;;;;21.06;57.91;98823.69;5049166;28;8886;-74
2022/05/25 02:28:26;;;;;;;;;16.40;15.40;;;;;21.05;58.11;98824.66;5030268;28;8845;-75
2022/05/25 02:30:58;;;;;;;;;19.40;16.60;;;;;20.83;58.83;98824.03;5048859;28;8861;-75
2022/05/25 02:33:34;;;;;;;;;17.80;17.80;;;;;20.92;58.37;98821.81;5055146;28;8854;-75
2022/05/25 02:36:03;;;;;;;;;18.20;18.20;;;;;20.98;58.43;98822.34;5067427;28;9777;-75
2022/05/25 02:38:32;;;;;;;;;13.20;12.00;;;;;21.04;58.03;98818.50;5068775;28;8853;-75
2022/05/25 02:41:06;;;;;;;;;15.80;15.80;;;;;21.15;57.61;98823.19;5069373;28;8862;-76
2022/05/25 02:43:36;;;;;;;;;18.60;16.60;;;;;21.11;57.76;98835.75;5063357;28;10117;-74
2022/05/25 02:46:06;;;;;;;;;15.75;14.50;;;;;21.21;57.26;98847.56;5048991;28;8907;-75
2022/05/25 02:48:36;;;;;;;;;15.80;15.80;;;;;21.26;57.12;98847.31;5050182;28;8857;-75
2022/05/25 02:51:05;;;;;;;;;16.40;16.00;;;;;21.27;57.22;98843.72;5017504;28;8856;-74
2022/05/25 02:53:34;;;;;;;;;18.00;17.00;;;;;21.30;57.09;98846.19;5049954;28;8864;-75
2022/05/25 02:56:03;;;;;;;;;14.80;14.80;;;;;21.33;56.99;98850.50;5090913;27;8848;-74
2022/05/25 02:58:31;;;;;;;;;17.40;17.00;;;;;21.36;56.86;98845.88;5089120;28;8894;-75
2022/05/25 03:01:00;;;;;;;;;13.40;12.60;;;;;21.31;57.15;98850.56;5070623;28;8947;-75
2022/05/25 03:03:29;;;;;;;;;14.20;14.20;;;;;21.22;57.47;98845.78;5089347;28;8882;-74
2022/05/25 03:06:00;;;;;;;;;15.00;14.60;;;;;21.25;57.31;98845.63;5089218;27;8847;-75
2022/05/25 03:08:28;;;;;;;;;32.75;29.50;;;;;;;;5108196;28;8917;-75
2022/05/25 03:10:57;;;;;;;;;20.50;20.25;;;;;21.22;57.45;98845.78;5106650;28;8852;-75
2022/05/25 03:13:25;;;;;;;;;20.20;19.20;;;;;21.19;57.39;98844.16;5088443;28;8882;-75
2022/05/25 03:15:54;;;;;;;;;18.80;17.60;;;;;21.20;57.46;98847.66;5089138;28;8863;-75
2022/05/25 03:18:22;;;;;;;;;18.20;17.20;;;;;21.18;57.78;98846.88;5088849;28;8858;-76
2022/05/25 03:20:51;;;;;;;;;15.60;15.20;;;;;21.21;57.51;98844.94;5088676;28;8890;-74
2022/05/25 03:23:21;;;;;;;;;17.80;17.80;;;;;21.25;57.38;98850.03;5123501;27;8843;-75
2022/05/25 03:25:50;;;;;;;;;17.00;16.40;;;;;21.28;57.26;98849.88;5128148;27;8850;-75
2022/05/25 03:28:18;;;;;;;;;15.60;14.80;;;;;21.33;57.11;98850.50;5129111;27;8853;-76
2022/05/25 03:30:47;;;;;;;;;18.20;18.20;;;;;21.31;57.22;98853.22;5127541;27;8851;-75
2022/05/25 03:33:16;;;;;;;;;14.80;14.80;;;;;21.33;56.94;98846.03;5129249;27;8855;-75
2022/05/25 03:35:45;;;;;;;;;13.80;13.80;;;;;21.32;57.25;98862.91;5083457;28;8894;-75
2022/05/25 03:38:14;;;;;;;;;17.40;16.60;;;;;21.31;57.21;98861.19;5098105;28;8843;-76
2022/05/25 03:40:44;;;;;;;;;2.80;1.20;;;;;21.23;57.55;98853.66;5109042;28;8868;-75
2022/05/25 03:43:17;;;;;;;;;17.00;16.00;;;;;21.27;57.38;98858.78;5109299;28;8814;-75
2022/05/25 03:45:46;;;;;;;;;16.40;16.40;;;;;21.30;57.13;98859.44;5101614;28;8835;-75
2022/05/25 03:48:16;;;;;;;;;23.20;21.80;;;;;21.33;57.25;98858.44;5087710;28;8831;-74
2022/05/25 03:50:44;;;;;;;;;19.60;19.60;;;;;21.37;57.12;98866.13;5048817;28;8871;-76
2022/05/25 03:53:14;;;;;;;;;20.20;18.80;;;;;21.41;56.87;98872.13;5065892;28;8894;-76
2022/05/25 03:55:44;;;;;;;;;21.40;17.40;;;;;21.51;56.72;98875.16;5086396;28;8855;-76
2022/05/25 03:58:13;;;;;;;;;18.40;17.40;;;;;21.56;56.51;98870.44;5105952;28;8855;-75
2022/05/25 04:00:42;;;;;;;;;15.60;15.40;;;;;21.61;56.50;98879.00;5105730;28;8982;-75
2022/05/25 04:03:13;;;;;;;;;17.60;16.60;;;;;21.67;56.29;98877.81;5039688;28;8970;-74
2022/05/25 04:05:43;;;;;;;;;18.00;17.00;;;;;21.70;56.28;98883.78;5091094;28;8958;-76
2022/05/25 04:08:12;;;;;;;;;20.20;19.00;;;;;21.73;56.38;98886.25;5070256;28;8855;-76
2022/05/25 04:10:42;;;;;;;;;19.00;17.40;;;;;21.75;56.26;98880.88;5091596;27;8855;-77
2022/05/25 04:13:12;;;;;;;;;17.20;17.20;;;;;21.72;56.37;98879.25;5112465;28;8860;-77
2022/05/25 04:15:40;;;;;;;;;18.00;17.60;;;;;21.76;56.16;98878.13;5111993;28;8838;-75
2022/05/25 04:18:09;;;;;;;;;16.60;16.60;;;;;21.74;56.26;98890.63;5094149;28;8859;-74
2022/05/25 04:20:38;;;;;;;;;19.00;18.75;;;;;21.73;56.52;98883.59;5108875;28;8859;-75
2022/05/25 04:23:10;;;;;;;;;19.80;17.60;;;;;21.73;56.36;98891.56;5092500;28;8855;-76
2022/05/25 04:25:41;;;;;;;;;19.50;19.50;;;;;21.77;56.25;98881.63;5092597;28;8859;-75
2022/05/25 04:28:12;;;;;;;;;20.00;20.00;;;;;21.83;56.23;98888.38;5109697;28;8912;-75
2022/05/25 04:30:40;;;;;;;;;18.20;18.20;;;;;21.90;55.72;98893.25;5107704;28;8843;-75
2022/05/25 04:33:08;;;;;;;;;17.80;17.00;;;;;21.98;55.36;98890.16;5092178;28;8944;-76
2022/05/25 04:35:37;;;;;;;;;17.00;17.00;;;;;22.08;55.45;98895.78;5109069;28;8863;-78
2022/05/25 04:38:06;;;;;;;;;15.80;15.80;;;;;22.13;55.11;98896.38;5109117;28;8846;-77
2022/05/25 04:40:38;;;;;;;;;20.20;17.40;;;;;22.21;54.74;98896.75;5092038;28;8871;-75
2022/05/25 04:43:13;;;;;;;;;17.75;17.75;;;;;22.36;54.81;98893.25;5091752;28;8847;-75
2022/05/25 04:45:43;;;;;;;;;21.75;18.00;;;;;22.48;54.35;98904.09;5092476;27;8837;-76
2022/05/25 04:48:14;;;;;;;;;15.00;15.00;;;;;22.59;53.92;98896.34;5088519;28;8842;-77
2022/05/25 04:50:44;;;;;;;;;19.00;19.00;;;;;22.76;53.64;98908.59;5088923;28;8858;-76
2022/05/25 04:53:15;;;;;;;;;21.50;21.25;;;;;22.74;53.53;98908.69;5090702;28;8918;-76
2022/05/25 04:58:34;;;;;;;;;19.20;18.40;;;;;22.96;53.61;98912.69;5089530;28;8823;-78
2022/05/25 05:01:05;;;;;;;;;17.20;16.20;;;;;23.11;53.46;98924.22;5095975;27;9671;-76
2022/05/25 05:03:35;;;;;;;;;17.20;17.20;;;;;23.29;53.11;98923.06;5091133;28;8856;-76
2022/05/25 05:06:05;;;;;;;;;19.60;16.00;;;;;23.48;52.48;98930.75;5071815;28;8843;-77
2022/05/25 05:08:34;;;;;;;;;17.60;15.60;;;;;23.66;52.14;98936.69;5089081;28;8864;-75
2022/05/25 05:11:06;;;;;;;;;17.80;16.80;;;;;23.84;51.49;98940.00;5090317;28;8836;-76
2022/05/25 05:13:36;;;;;;;;;16.60;16.60;;;;;23.99;51.11;98931.94;5089850;28;8843;-76
2022/05/25 05:16:08;;;;;;;;;16.60;16.60;;;;;24.18;50.85;98935.13;5054588;28;8941;-75
2022/05/25 05:18:37;;;;;;;;;19.60;19.00;;;;;24.34;50.45;98942.94;5100010;27;8867;-75
2022/05/25 05:21:22;;;;;;;;;23.25;23.00;;;;;24.49;50.63;98946.38;5108414;28;8929;-77
2022/05/25 05:23:51;;;;;;;;;14.00;13.50;;;;;24.58;49.99;98944.94;5091263;28;8841;-76
2022/05/25 05:26:19;;;;;;;;;17.80;17.20;;;;;24.70;49.99;98941.44;5074354;28;8895;-77
2022/05/25 05:28:53;;;;;;;;;25.20;22.60;;;;;24.83;49.21;98944.97;5111893;28;8937;-77
2022/05/25 05:31:22;;;;;;;;;18.00;17.40;;;;;25.03;48.85;98948.06;5103083;28;8856;-77
2022/05/25 05:33:51;;;;;;;;;19.00;19.00;;;;;25.13;48.88;98951.78;5088646;28;8870;-76
2022/05/25 05:36:22;;;;;;;;;22.50;21.00;;;;;25.11;48.47;98951.06;5108594;28;8882;-76
2022/05/25 05:38:57;;;;;;;;;16.40;16.40;;;;;25.27;48.66;98957.06;5108467;28;8875;-77
2022/05/25 05:41:30;;;;;;;;;18.00;18.00;;;;;25.37;48.74;98953.72;5111958;28;8885;-75
2022/05/25 05:44:01;;;;;;;;;17.40;16.20;;;;;25.54;48.40;98953.38;5110861;28;8871;-77
2022/05/25 05:46:30;;;;;;;;;21.20;20.00;;;;;25.65;47.40;98953.47;5109754;28;9658;-75
2022/05/25 05:48:59;;;;;;;;;15.00;15.00;;;;;25.75;47.69;98947.44;5112020;28;8845;-77
2022/05/25 05:51:28;;;;;;;;;15.80;14.40;;;;;25.86;47.11;98959.03;5112406;28;8947;-78
2022/05/25 05:53:57;;;;;;;;;17.80;17.40;;;;;25.98;46.73;98961.81;5107219;28;8865;-70
2022/05/25 05:56:25;;;;;;;;;16.60;16.60;;;;;26.07;46.84;98961.13;5109622;28;8865;-71
2022/05/25 05:58:54;;;;;;;;;16.60;15.00;;;;;26.22;46.77;98964.50;5109692;27;9704;-72
2022/05/25 06:01:24;;;;;;;;;18.00;16.60;;;;;26.31;46.19;98963.78;5106457;28;8851;-72
2022/05/25 06:03:52;;;;;;;;;18.00;17.60;;;;;26.37;46.15;98974.03;5108499;28;8869;-73
2022/05/25 06:06:23;;;;;;;;;15.80;15.00;;;;;26.42;46.27;98966.50;5090727;28;8851;-72
2022/05/25 06:08:51;;;;;;;;;17.20;15.60;;;;;26.49;46.45;98972.25;5107152;27;8869;-72
2022/05/25 06:11:21;;;;;;;;;17.40;16.00;;;;;26.59;46.11;98975.06;5109488;28;9622;-71
2022/05/25 06:13:50;;;;;;;;;18.00;15.60;;;;;26.63;45.82;98974.78;5099986;28;8921;-74
2022/05/25 06:21:57;;;;;;;;;16.50;15.75;;;;;27.17;45.52;98994.69;5109653;28;8895;-73
2022/05/25 06:24:26;;;;;;;;;12.80;12.80;;;;;27.33;45.47;98993.53;5110319;28;8949;-75
2022/05/25 06:26:54;;;;;;;;;18.00;18.00;;;;;27.48;45.07;98996.81;5107420;28;8869;-75
2022/05/25 06:29:24;;;;;;;;;18.25;17.75;;;;;27.70;44.57;98994.13;5108949;28;8921;-74
2022/05/25 06:31:52;;;;;;;;;24.75;22.75;;;;;27.85;44.19;98993.88;5108004;28;8966;-74
2022/05/25 06:34:22;;;;;;;;;15.80;14.40;;;;;28.00;43.60;98998.00;5108924;28;8853;-73
2022/05/25 06:36:51;;;;;;;;;14.00;14.00;;;;;28.15;43.42;99010.16;5108702;28;8845;-73
2022/05/25 06:39:19;;;;;;;;;17.40;16.00;;;;;28.29;42.73;99008.16;5108548;28;8883;-73
2022/05/25 06:41:48;;;;;;;;;17.40;15.40;;;;;28.42;42.40;99003.47;5107828;28;8861;-73
2022/05/25 06:44:17;;;;;;;;;17.00;17.00;;;;;28.52;42.13;99006.28;5062891;28;9002;-74
2022/05/25 06:46:47;;;;;;;;;18.20;18.00;;;;;28.63;42.17;99006.22;5086847;28;8882;-74
2022/05/25 06:49:17;;;;;;;;;16.75;16.25;;;;;28.67;42.33;99002.28;5087161;28;8857;-73
2022/05/25 06:51:47;;;;;;;;;19.20;18.40;;;;;28.77;42.13;99002.34;5087455;28;8863;-74
2022/05/25 06:54:17;;;;;;;;;15.00;15.00;;;;;28.85;41.89;99009.78;5085925;28;8860;-73
2022/05/25 06:56:46;;;;;;;;;16.00;15.40;;;;;28.93;41.04;99008.13;5087669;28;8867;-73
2022/05/25 06:59:16;;;;;;;;;17.75;16.75;;;;;29.00;40.98;99008.47;5088528;28;8817;-73
2022/05/25 07:01:46;;;;;;;;;16.00;15.40;;;;;29.07;40.68;99004.25;5096200;28;8871;-73
2022/05/25 07:04:14;;;;;;;;;16.25;16.25;;;;;29.23;40.42;99009.19;5087392;28;8882;-73
2022/05/25 07:06:43;;;;;;;;;16.75;14.25;;;;;29.38;40.14;99011.50;5069035;28;8875;-73
2022/05/25 07:09:13;;;;;;;;;18.50;18.25;;;;;29.54;40.78;99015.41;5091722;28;8836;-73
2022/05/25 07:11:42;;;;;;;;;19.25;18.25;;;;;29.63;40.59;99007.53;5087647;28;8871;-74
2022/05/25 07:14:11;;;;;;;;;18.00;17.75;;;;;29.52;37.65;99011.16;5082041;28;8872;-72
2022/05/25 07:16:40;;;;;;;;;14.00;14.00;;;;;29.53;35.89;99011.03;5105793;28;8994;-74
2022/05/25 07:19:09;;;;;;;;;17.00;16.75;;;;;29.71;38.84;99010.38;5062579;28;8835;-74
2022/05/25 07:21:37;;;;;;;;;17.75;16.50;;;;;29.73;39.17;99013.81;5087792;28;8848;-76
2022/05/25 07:24:07;;;;;;;;;18.00;17.25;;;;;29.81;39.52;99014.00;5078143;28;8867;-73
2022/05/25 07:26:37;;;;;;;;;20.25;20.25;;;;;29.87;39.77;99018.84;5092861;28;8839;-72
2022/05/25 07:29:06;;;;;;;;;21.75;21.75;;;;;29.87;39.79;99026.06;5088283;28;8855;-72
2022/05/25 07:31:42;;;;;;;;;21.00;19.75;;;;;29.98;39.19;99022.38;5088462;28;9618;-75
2022/05/25 07:34:15;;;;;;;;;23.25;22.25;;;;;30.03;38.96;99023.69;5095654;28;8861;-75
2022/05/25 07:36:48;;;;;;;;;17.50;16.75;;;;;30.11;38.96;99031.91;5093157;28;8852;-77
2022/05/25 07:39:20;;;;;;;;;21.50;19.75;;;;;30.13;38.53;99032.63;5088606;28;8871;-79
2022/05/25 07:41:54;;;;;;;;;22.25;20.00;;;;;30.20;38.38;99030.22;5087013;28;8862;-78
2022/05/25 07:44:27;;;;;;;;;21.75;21.25;;;;;30.16;38.19;99022.59;5091826;28;8864;-75
2022/05/25 07:46:56;;;;;;;;;22.00;21.50;;;;;30.18;39.25;99020.59;5092351;28;8847;-76
2022/05/25 07:49:25;;;;;;;;;22.75;20.25;;;;;30.34;39.17;99015.56;5056418;28;8828;-79
2022/05/25 07:51:55;;;;;;;;;18.33;18.00;;;;;30.41;38.37;99024.75;5091218;28;8951;-80
2022/05/25 07:54:24;;;;;;;;;21.00;20.00;;;;;30.51;38.09;99022.06;5092686;28;9620;-80
2022/05/25 07:56:55;;;;;;;;;19.00;18.75;;;;;30.61;36.84;99019.41;5090858;28;8859;-76
2022/05/25 07:59:24;;;;;;;;;20.25;19.25;;;;;30.66;36.82;99019.78;5092242;28;8852;-79
2022/05/25 08:07:34;;;;;;;;;20.75;19.50;;;;;30.90;36.39;99022.94;5092144;28;8836;-79
2022/05/25 08:10:07;;;;;;;;;23.00;23.00;;;;;30.97;36.89;99035.84;5090519;28;8839;-75
2022/05/25 08:12:39;;;;;;;;;23.50;22.75;;;;;30.98;36.30;99027.59;5091979;28;8840;-79
2022/05/25 08:15:10;;;;;;;;;21.50;20.75;;;;;30.88;35.84;99030.28;5072660;28;8867;-75
2022/05/25 08:17:39;;;;;;;;;20.00;20.00;;;;;30.90;35.43;99036.38;5090735;28;8946;-76
2022/05/25 08:20:10;;;;;;;;;21.00;21.00;;;;;30.94;36.21;99033.41;5056491;28;8875;-75
2022/05/25 08:22:39;;;;;;;;;22.50;22.50;;;;;30.79;36.88;99032.97;5089703;28;9708;-75
2022/05/25 08:25:10;;;;;;;;;17.75;17.00;;;;;30.82;35.88;99035.41;5092377;28;8901;-76
2022/05/25 08:27:40;;;;;;;;;22.25;20.75;;;;;30.86;35.72;99026.88;5094139;28;8940;-77
2022/05/25 08:30:13;;;;;;;;;22.00;22.00;;;;;30.97;36.26;99030.44;5091269;28;8863;-78
2022/05/25 08:32:42;;;;;;;;;23.25;21.00;;;;;30.88;37.28;99040.19;5091333;28;8883;-79
2022/05/25 08:35:13;;;;;;;;;20.00;17.75;;;;;31.02;35.73;99034.41;5091865;28;8848;-75
2022/05/25 08:37:42;;;;;;;;;22.00;22.00;;;;;31.03;35.02;99032.56;5091724;28;8855;-76
2022/05/25 08:40:13;;;;;;;;;23.50;22.75;;;;;30.86;36.23;99034.94;5091421;28;8852;-75
2022/05/25 08:42:52;;;;;;;;;24.75;24.75;;;;;31.06;36.58;99041.19;5098405;28;8878;-75
2022/05/25 08:45:24;;;;;;;;;23.00;22.25;;;;;31.17;35.79;99040.16;5111771;28;8841;-79
2022/05/25 08:47:57;;;;;;;;;19.75;19.25;;;;;31.16;35.23;99037.66;5110232;28;9728;-80
2022/05/25 08:50:26;;;;;;;;;17.75;17.00;;;;;31.30;34.69;99042.56;5108854;28;8868;-77
2022/05/25 08:52:57;;;;;;;;;20.00;17.75;;;;;31.25;33.62;99043.00;5111819;28;8863;-74
2022/05/25 08:55:40;;;;;;;;;18.25;17.00;;;;;31.38;33.03;99041.81;5105637;28;8980;-75
2022/05/25 08:58:13;;;;;;;;;15.25;14.75;;;;;31.44;33.11;99042.09;5089420;28;8794;-75
2022/05/25 09:00:44;;;;;;;;;16.00;15.25;;;;;31.51;32.83;99044.22;5092384;28;8874;-77
2022/05/25 09:03:23;;;;;;;;;15.50;13.75;;;;;31.60;32.54;99048.75;5111058;28;8853;-75
2022/05/25 09:05:59;;;;;;;;;15.25;14.25;;;;;31.60;32.38;99048.75;5110834;28;9451;-74
2022/05/25 09:08:36;;;;;;;;;19.25;17.50;;;;;31.65;32.82;99057.25;5103135;28;8840;-74
2022/05/25 09:11:14;;;;;;;;;14.00;13.00;;;;;31.74;33.62;99055.50;5090366;28;8855;-76
2022/05/25 09:13:51;;;;;;;;;13.75;13.75;;;;;31.85;32.67;99056.16;5121996;27;8963;-75
2022/05/25 09:16:28;;;;;;;;;15.00;15.00;;;;;31.62;30.70;99054.84;5111026;28;8930;-75
2022/05/25 09:19:02;;;;;;;;;16.33;15.33;;;;;31.77;30.79;99056.03;5110613;28;8938;-78
2022/05/25 09:21:36;;;;;;;;;15.00;15.00;;;;;31.89;31.48;99050.47;5110542;28;8905;-75
2022/05/25 09:24:12;;;;;;;;;20.25;18.75;;;;;31.90;32.01;99057.56;5109081;28;9606;-76
2022/05/25 09:26:42;;;;;;;;;14.75;14.50;;;;;31.90;31.36;99050.31;5110313;28;8988;-75
2022/05/25 09:29:13;;;;;;;;;15.50;14.75;;;;;31.88;32.00;99057.72;5109366;28;8845;-79
2022/05/25 09:31:47;;;;;;;;;13.33;13.33;;;;;31.53;32.74;99064.66;5104707;28;8871;-75
2022/05/25 09:34:30;;;;;;;;;24.00;24.00;;;;;31.49;32.69;99060.53;5089942;28;8832;-75
2022/05/25 09:37:08;;;;;;;;;16.75;14.75;;;;;31.37;33.48;99062.53;5101569;28;8849;-77
2022/05/25 09:39:43;;;;;;;;;15.50;15.25;;;;;31.23;33.16;99058.47;5110781;28;8956;-76
2022/05/25 09:42:17;;;;;;;;;14.00;13.75;;;;;31.40;33.28;99051.47;5110188;28;8833;-76
2022/05/25 09:44:52;;;;;;;;;13.25;11.25;;;;;31.63;33.99;99046.59;5107231;28;8930;-79
2022/05/25 09:47:25;;;;;;;;;14.50;13.00;;;;;31.76;32.69;99045.41;5109154;28;9635;-79
2022/05/25 09:49:59;;;;;;;;;15.00;15.00;;;;;31.94;31.95;99037.38;5110529;28;8953;-75
2022/05/25 09:52:36;;;;;;;;;13.50;12.75;;;;;32.09;31.90;99046.69;5110572;28;8840;-77
2022/05/25 09:55:10;;;;;;;;;15.75;15.50;;;;;32.27;30.80;99048.56;5100870;28;8847;-75
2022/05/25 09:57:44;;;;;;;;;12.75;12.75;;;;;32.38;31.00;99043.81;5098335;28;9625;-78
2022/05/25 10:00:22;;;;;;;;;15.00;15.00;;;;;32.28;30.52;99051.13;5041425;28;8849;-78
2022/05/25 10:02:52;;;;;;;;;16.00;16.00;;;;;32.28;31.11;99044.88;5108134;28;8867;-75
2022/05/25 10:05:25;;;;;;;;;14.25;13.75;;;;;32.35;30.68;99052.22;5097071;28;8877;-74
2022/05/25 10:07:58;;;;;;;;;14.75;13.50;;;;;32.50;31.49;99054.38;5095958;28;8893;-76
2022/05/25 10:10:31;;;;;;;;;14.00;13.25;;;;;32.59;30.57;99051.66;5086769;28;8843;-80
2022/05/25 10:13:04;;;;;;;;;15.50;15.25;;;;;32.74;30.26;99049.25;5087074;28;8830;-77
2022/05/25 10:15:37;;;;;;;;;20.25;19.25;;;;;32.59;30.42;99048.94;5087272;28;8853;-79
2022/05/25 10:18:08;;;;;;;;;19.75;18.00;;;;;32.80;31.04;99050.47;5054010;28;8852;-75
2022/05/25 10:20:47;;;;;;;;;15.75;15.25;;;;;32.81;29.36;99042.19;5107671;28;8943;-75
2022/05/25 10:23:23;;;;;;;;;16.75;13.75;;;;;32.17;30.11;99049.47;5107566;28;8862;-74
2022/05/25 10:25:55;;;;;;;;;16.75;16.75;;;;;31.94;31.16;99046.31;5106638;28;8840;-76
2022/05/25 10:28:33;;;;;;;;;17.00;15.00;;;;;32.11;30.61;99043.84;5091178;28;8867;-75
2022/05/25 10:36:56;;;;;;;;;14.50;14.00;;;;;31.75;31.90;99039.16;5106127;28;8953;-76
2022/05/25 10:39:35;;;;;;;;;13.75;13.75;;;;;32.10;31.63;99020.56;5055289;28;8933;-75
2022/05/25 10:42:11;;;;;;;;;18.25;17.25;;;;;32.37;31.45;99036.72;5103458;28;8836;-74
2022/05/25 10:44:49;;;;;;;;;14.25;14.00;;;;;32.64;31.21;99033.09;5097542;28;8877;-75
2022/05/25 10:47:44;;;;;;;;;17.50;17.00;;;;;32.87;30.36;99032.63;5107998;28;8889;-76
2022/05/25 10:50:20;;;;;;;;;15.75;15.75;;;;;33.12;30.01;99032.84;5088567;28;9600;-76
2022/05/25 10:52:52;;;;;;;;;19.75;19.00;;;;;32.92;27.53;99026.78;5090003;28;8945;-79
2022/05/25 10:55:26;;;;;;;;;21.50;20.50;;;;;32.52;27.94;99026.22;5072196;28;8856;-74
2022/05/25 10:58:24;;;;;;;;;17.25;15.25;;;;;32.52;28.07;99026.22;5109395;28;8866;-80
2022/05/25 11:01:15;;;;;;;;;13.75;13.75;;;;;32.59;27.63;99023.78;5038508;28;8865;-78
2022/05/25 11:04:06;;;;;;;;;15.50;14.50;;;;;32.88;27.35;99026.22;5005210;28;8829;-77
2022/05/25 11:07:12;;;;;;;;;15.00;14.25;;;;;32.67;27.51;99031.09;5049350;28;8854;-76
2022/05/25 11:10:08;;;;;;;;;17.00;15.25;;;;;32.07;27.88;99031.66;5065535;28;8825;-77
2022/05/25 11:12:48;;;;;;;;;17.00;16.00;;;;;32.01;27.79;99033.94;5015274;28;9712;-76
2022/05/25 11:15:26;;;;;;;;;15.00;14.75;;;;;32.48;27.81;99032.06;5027990;28;8881;-77
2022/05/25 11:18:16;;;;;;;;;18.75;18.75;;;;;32.64;27.36;99034.97;5060774;28;9641;-77
2022/05/25 11:20:58;;;;;;;;;17.50;16.50;;;;;33.08;27.63;99023.31;5048750;28;8883;-79
2022/05/25 11:23:48;;;;;;;;;15.25;14.75;;;;;33.31;26.63;99029.94;5046025;28;8862;-81
2022/05/25 11:26:37;;;;;;;;;15.75;15.75;;;;;33.70;26.32;99036.75;5011127;28;8876;-78
2022/05/25 11:29:25;;;;;;;;;14.25;13.50;;;;;33.95;25.04;99037.69;5070055;28;8895;-78
2022/05/25 11:32:00;;;;;;;;;16.50;15.00;;;;;33.75;25.42;99039.84;5069821;28;9595;-79
2022/05/25 11:34:42;;;;;;;;;15.50;14.50;;;;;34.06;24.81;99040.13;5075619;28;9578;-76
2022/05/25 11:37:34;;;;;;;;;16.75;14.75;;;;;33.52;25.56;99034.13;5078963;28;8882;-77
2022/05/25 11:40:14;;;;;;;;;14.50;14.50;;;;;32.79;25.90;99043.38;5131450;27;8857;-76
2022/05/25 11:43:06;;;;;;;;;14.50;13.50;;;;;33.32;26.35;99028.91;5072365;28;8839;-78
2022/05/25 11:46:03;;;;;;;;;15.75;15.00;;;;;33.89;24.99;99027.53;5065777;28;8848;-78
2022/05/25 11:49:24;;;;;;;;;19.25;19.25;;;;;34.33;24.05;99021.94;5049570;28;8945;-79
2022/05/25 11:52:01;;;;;;;;;20.00;19.25;;;;;34.71;25.09;99025.09;5046876;28;8848;-82
2022/05/25 11:54:45;;;;;;;;;15.25;13.75;;;;;34.96;23.00;99023.19;5048953;28;8868;-82
2022/05/25 11:57:20;;;;;;;;;14.00;14.00;;;;;34.24;23.41;99021.09;5048339;28;8984;-77
2022/05/25 12:00:11;;;;;;;;;14.50;14.50;;;;;34.10;24.15;99022.56;5065814;28;8840;-77
2022/05/25 12:02:58;;;;;;;;;14.25;14.00;;;;;34.66;22.75;99016.56;5065159;28;9602;-75
2022/05/25 12:05:32;;;;;;;;;13.50;13.25;;;;;34.89;22.30;99017.59;5065851;28;8850;-79
2022/05/25 12:08:30;;;;;;;;;12.25;12.25;;;;;35.05;23.27;99021.31;5032912;28;8868;-78
2022/05/25 12:11:08;;;;;;;;;14.25;14.25;;;;;34.85;22.60;99020.84;4925760;29;8907;-79
2022/05/25 12:13:44;;;;;;;;;12.25;12.25;;;;;34.31;22.88;99016.72;4927421;29;8857;-77
2022/05/25 12:16:18;;;;;;;;;14.50;13.75;;;;;33.48;24.21;99016.50;4923659;29;8885;-78
2022/05/25 12:19:00;;;;;;;;;16.75;15.50;;;;;33.55;24.36;99010.28;4899509;29;8885;-77